sensor_id;sensor_type;location;lat;lon;timestamp;P1;durP1;ratioP1;P2;durP2;ratioP2
63738;SDS011;68816;45.558;10.070;2023-07-31T00:00:28;6.85;;;4.60;;
63738;SDS011;68816;45.558;10.070;2023-07-31T00:02:54;4.50;;;3.95;;
63738;SDS011;68816;45.558;10.070;2023-07-31T00:05:20;4.22;;;3.70;;
63738;SDS011;68816;45.558;10.070;2023-07-31T00:07:46;5.38;;;4.00;;
63738;SDS011;68816;45.558;10.070;2023-07-31T00:10:12;5.47;;;4.05;;
63738;SDS011;68816;45.558;10.070;2023-07-31T00:12:38;5.18;;;3.80;;
63738;SDS011;68816;45.558;10.070;2023-07-31T00:15:05;5.18;;;4.53;;
63738;SDS011;68816;45.558;10.070;2023-07-31T00:17:32;6.47;;;4.85;;
63738;SDS011;68816;45.558;10.070;2023-07-31T00:19:57;6.28;;;5.28;;
63738;SDS011;68816;45.558;10.070;2023-07-31T00:22:23;6.68;;;5.45;;
63738;SDS011;68816;45.558;10.070;2023-07-31T00:24:49;6.18;;;4.97;;
63738;SDS011;68816;45.558;10.070;2023-07-31T00:27:14;7.05;;;6.38;;
63738;SDS011;68816;45.558;10.070;2023-07-31T00:29:40;7.95;;;7.15;;
63738;SDS011;68816;45.558;10.070;2023-07-31T00:32:06;8.10;;;7.30;;
63738;SDS011;68816;45.558;10.070;2023-07-31T00:34:32;9.43;;;8.52;;
63738;SDS011;68816;45.558;10.070;2023-07-31T00:36:57;9.82;;;8.48;;
63738;SDS011;68816;45.558;10.070;2023-07-31T00:39:23;9.90;;;8.90;;
63738;SDS011;68816;45.558;10.070;2023-07-31T00:41:49;10.02;;;9.05;;
63738;SDS011;68816;45.558;10.070;2023-07-31T00:44:14;10.25;;;8.90;;
63738;SDS011;68816;45.558;10.070;2023-07-31T00:46:40;10.10;;;9.10;;
63738;SDS011;68816;45.558;10.070;2023-07-31T00:49:05;9.80;;;8.88;;
63738;SDS011;68816;45.558;10.070;2023-07-31T00:51:31;9.27;;;8.38;;
63738;SDS011;68816;45.558;10.070;2023-07-31T00:53:57;10.25;;;8.65;;
63738;SDS011;68816;45.558;10.070;2023-07-31T00:56:23;8.45;;;7.65;;
63738;SDS011;68816;45.558;10.070;2023-07-31T00:58:49;10.15;;;8.00;;
63738;SDS011;68816;45.558;10.070;2023-07-31T01:01:15;8.07;;;7.28;;
63738;SDS011;68816;45.558;10.070;2023-07-31T01:03:40;8.05;;;7.25;;
63738;SDS011;68816;45.558;10.070;2023-07-31T01:06:18;9.43;;;8.48;;
63738;SDS011;68816;45.558;10.070;2023-07-31T01:11:34;9.10;;;7.90;;
63738;SDS011;68816;45.558;10.070;2023-07-31T01:14:08;10.80;;;9.70;;
63738;SDS011;68816;45.558;10.070;2023-07-31T01:16:33;12.05;;;9.20;;
63738;SDS011;68816;45.558;10.070;2023-07-31T01:18:59;11.95;;;10.13;;
63738;SDS011;68816;45.558;10.070;2023-07-31T01:24:20;10.98;;;9.57;;
63738;SDS011;68816;45.558;10.070;2023-07-31T01:27:06;10.35;;;8.95;;
63738;SDS011;68816;45.558;10.070;2023-07-31T01:29:38;10.70;;;9.45;;
63738;SDS011;68816;45.558;10.070;2023-07-31T01:32:11;9.90;;;8.93;;
63738;SDS011;68816;45.558;10.070;2023-07-31T01:34:37;9.55;;;8.65;;
63738;SDS011;68816;45.558;10.070;2023-07-31T01:37:04;9.70;;;8.80;;
63738;SDS011;68816;45.558;10.070;2023-07-31T01:39:30;9.98;;;8.98;;
63738;SDS011;68816;45.558;10.070;2023-07-31T01:41:56;9.90;;;9.00;;
63738;SDS011;68816;45.558;10.070;2023-07-31T01:44:21;11.55;;;8.98;;
63738;SDS011;68816;45.558;10.070;2023-07-31T01:46:47;10.18;;;9.27;;
63738;SDS011;68816;45.558;10.070;2023-07-31T01:49:13;10.57;;;9.43;;
63738;SDS011;68816;45.558;10.070;2023-07-31T01:51:38;10.82;;;9.73;;
63738;SDS011;68816;45.558;10.070;2023-07-31T01:54:04;10.30;;;9.27;;
63738;SDS011;68816;45.558;10.070;2023-07-31T01:56:30;10.80;;;9.70;;
63738;SDS011;68816;45.558;10.070;2023-07-31T01:58:55;9.57;;;8.57;;
63738;SDS011;68816;45.558;10.070;2023-07-31T02:01:21;10.95;;;9.90;;
63738;SDS011;68816;45.558;10.070;2023-07-31T02:03:47;10.50;;;9.50;;
63738;SDS011;68816;45.558;10.070;2023-07-31T02:06:12;11.27;;;9.35;;
63738;SDS011;68816;45.558;10.070;2023-07-31T02:08:38;10.15;;;9.05;;
63738;SDS011;68816;45.558;10.070;2023-07-31T02:11:03;10.30;;;9.13;;
63738;SDS011;68816;45.558;10.070;2023-07-31T02:13:29;10.07;;;9.10;;
63738;SDS011;68816;45.558;10.070;2023-07-31T02:15:55;9.95;;;9.05;;
63738;SDS011;68816;45.558;10.070;2023-07-31T02:18:20;11.15;;;9.75;;
63738;SDS011;68816;45.558;10.070;2023-07-31T02:20:50;10.45;;;9.55;;
63738;SDS011;68816;45.558;10.070;2023-07-31T02:23:17;15.90;;;9.70;;
63738;SDS011;68816;45.558;10.070;2023-07-31T02:25:45;10.77;;;9.48;;
63738;SDS011;68816;45.558;10.070;2023-07-31T02:28:11;10.85;;;9.82;;
63738;SDS011;68816;45.558;10.070;2023-07-31T02:30:37;11.32;;;10.18;;
63738;SDS011;68816;45.558;10.070;2023-07-31T02:33:03;11.57;;;10.38;;
63738;SDS011;68816;45.558;10.070;2023-07-31T02:35:29;11.20;;;9.60;;
63738;SDS011;68816;45.558;10.070;2023-07-31T02:37:54;12.10;;;9.60;;
63738;SDS011;68816;45.558;10.070;2023-07-31T02:40:20;10.52;;;9.52;;
63738;SDS011;68816;45.558;10.070;2023-07-31T02:42:45;11.43;;;8.57;;
63738;SDS011;68816;45.558;10.070;2023-07-31T02:45:11;9.98;;;8.63;;
63738;SDS011;68816;45.558;10.070;2023-07-31T02:47:37;10.00;;;8.82;;
63738;SDS011;68816;45.558;10.070;2023-07-31T02:50:03;10.13;;;8.38;;
63738;SDS011;68816;45.558;10.070;2023-07-31T02:52:29;9.73;;;8.75;;
63738;SDS011;68816;45.558;10.070;2023-07-31T02:54:55;10.60;;;8.73;;
63738;SDS011;68816;45.558;10.070;2023-07-31T02:57:20;10.35;;;8.30;;
63738;SDS011;68816;45.558;10.070;2023-07-31T02:59:46;9.27;;;8.38;;
63738;SDS011;68816;45.558;10.070;2023-07-31T03:02:12;11.00;;;8.93;;
63738;SDS011;68816;45.558;10.070;2023-07-31T03:04:38;9.10;;;8.30;;
63738;SDS011;68816;45.558;10.070;2023-07-31T03:07:04;10.20;;;9.20;;
63738;SDS011;68816;45.558;10.070;2023-07-31T03:09:30;9.98;;;8.98;;
63738;SDS011;68816;45.558;10.070;2023-07-31T03:11:55;10.40;;;9.00;;
63738;SDS011;68816;45.558;10.070;2023-07-31T03:14:21;10.88;;;9.02;;
63738;SDS011;68816;45.558;10.070;2023-07-31T03:16:47;12.13;;;9.18;;
63738;SDS011;68816;45.558;10.070;2023-07-31T03:19:13;10.30;;;9.20;;
63738;SDS011;68816;45.558;10.070;2023-07-31T03:21:38;9.60;;;8.70;;
63738;SDS011;68816;45.558;10.070;2023-07-31T03:24:04;10.77;;;9.38;;
63738;SDS011;68816;45.558;10.070;2023-07-31T03:26:31;10.65;;;9.45;;
63738;SDS011;68816;45.558;10.070;2023-07-31T03:28:57;10.60;;;9.60;;
63738;SDS011;68816;45.558;10.070;2023-07-31T03:31:23;11.02;;;9.95;;
63738;SDS011;68816;45.558;10.070;2023-07-31T03:33:48;12.70;;;9.60;;
63738;SDS011;68816;45.558;10.070;2023-07-31T03:36:14;10.60;;;9.60;;
63738;SDS011;68816;45.558;10.070;2023-07-31T03:38:40;11.25;;;10.15;;
63738;SDS011;68816;45.558;10.070;2023-07-31T03:41:05;11.02;;;10.13;;
63738;SDS011;68816;45.558;10.070;2023-07-31T03:43:31;10.57;;;9.52;;
63738;SDS011;68816;45.558;10.070;2023-07-31T03:45:59;11.05;;;9.95;;
63738;SDS011;68816;45.558;10.070;2023-07-31T03:48:25;11.95;;;9.70;;
63738;SDS011;68816;45.558;10.070;2023-07-31T03:50:51;10.68;;;9.68;;
63738;SDS011;68816;45.558;10.070;2023-07-31T03:53:17;11.15;;;9.93;;
63738;SDS011;68816;45.558;10.070;2023-07-31T03:55:42;9.93;;;8.93;;
63738;SDS011;68816;45.558;10.070;2023-07-31T03:58:08;11.18;;;10.00;;
63738;SDS011;68816;45.558;10.070;2023-07-31T04:00:34;11.13;;;10.13;;
63738;SDS011;68816;45.558;10.070;2023-07-31T04:02:59;12.35;;;10.40;;
63738;SDS011;68816;45.558;10.070;2023-07-31T04:05:25;11.25;;;10.25;;
63738;SDS011;68816;45.558;10.070;2023-07-31T04:07:50;11.88;;;10.77;;
63738;SDS011;68816;45.558;10.070;2023-07-31T04:10:16;11.98;;;10.05;;
63738;SDS011;68816;45.558;10.070;2023-07-31T04:12:42;12.07;;;10.88;;
63738;SDS011;68816;45.558;10.070;2023-07-31T04:15:07;11.20;;;10.15;;
63738;SDS011;68816;45.558;10.070;2023-07-31T04:17:33;12.90;;;11.65;;
63738;SDS011;68816;45.558;10.070;2023-07-31T04:19:59;11.95;;;10.18;;
63738;SDS011;68816;45.558;10.070;2023-07-31T04:22:25;14.55;;;11.60;;
63738;SDS011;68816;45.558;10.070;2023-07-31T04:24:50;14.05;;;10.95;;
63738;SDS011;68816;45.558;10.070;2023-07-31T04:27:16;12.38;;;11.27;;
63738;SDS011;68816;45.558;10.070;2023-07-31T04:29:41;13.07;;;11.57;;
63738;SDS011;68816;45.558;10.070;2023-07-31T04:32:09;12.57;;;11.45;;
63738;SDS011;68816;45.558;10.070;2023-07-31T04:34:35;13.45;;;11.88;;
63738;SDS011;68816;45.558;10.070;2023-07-31T04:37:00;12.35;;;11.15;;
63738;SDS011;68816;45.558;10.070;2023-07-31T04:39:26;13.27;;;11.95;;
63738;SDS011;68816;45.558;10.070;2023-07-31T04:41:51;13.23;;;11.93;;
63738;SDS011;68816;45.558;10.070;2023-07-31T04:44:17;13.02;;;11.73;;
63738;SDS011;68816;45.558;10.070;2023-07-31T04:46:42;16.23;;;12.77;;
63738;SDS011;68816;45.558;10.070;2023-07-31T04:49:08;14.35;;;12.82;;
63738;SDS011;68816;45.558;10.070;2023-07-31T04:51:34;13.70;;;12.27;;
63738;SDS011;68816;45.558;10.070;2023-07-31T04:53:59;14.32;;;11.93;;
63738;SDS011;68816;45.558;10.070;2023-07-31T04:56:25;14.00;;;11.73;;
63738;SDS011;68816;45.558;10.070;2023-07-31T04:58:50;12.82;;;11.52;;
63738;SDS011;68816;45.558;10.070;2023-07-31T05:01:16;15.65;;;10.82;;
63738;SDS011;68816;45.558;10.070;2023-07-31T05:03:41;15.18;;;11.90;;
63738;SDS011;68816;45.558;10.070;2023-07-31T05:06:07;12.40;;;11.20;;
63738;SDS011;68816;45.558;10.070;2023-07-31T05:08:33;12.90;;;11.32;;
63738;SDS011;68816;45.558;10.070;2023-07-31T05:10:58;12.50;;;11.30;;
63738;SDS011;68816;45.558;10.070;2023-07-31T05:13:24;14.00;;;11.93;;
63738;SDS011;68816;45.558;10.070;2023-07-31T05:15:49;11.85;;;10.63;;
63738;SDS011;68816;45.558;10.070;2023-07-31T05:18:15;11.98;;;10.77;;
63738;SDS011;68816;45.558;10.070;2023-07-31T05:20:41;13.98;;;10.55;;
63738;SDS011;68816;45.558;10.070;2023-07-31T05:23:06;12.52;;;10.68;;
63738;SDS011;68816;45.558;10.070;2023-07-31T05:25:32;12.25;;;10.27;;
63738;SDS011;68816;45.558;10.070;2023-07-31T05:27:57;13.70;;;11.20;;
63738;SDS011;68816;45.558;10.070;2023-07-31T05:30:23;13.07;;;11.05;;
63738;SDS011;68816;45.558;10.070;2023-07-31T05:32:49;12.20;;;10.50;;
63738;SDS011;68816;45.558;10.070;2023-07-31T05:35:14;17.13;;;9.75;;
63738;SDS011;68816;45.558;10.070;2023-07-31T05:37:40;11.48;;;10.27;;
63738;SDS011;68816;45.558;10.070;2023-07-31T05:40:06;11.40;;;9.48;;
63738;SDS011;68816;45.558;10.070;2023-07-31T05:42:32;11.85;;;9.43;;
63738;SDS011;68816;45.558;10.070;2023-07-31T05:44:57;12.38;;;9.52;;
63738;SDS011;68816;45.558;10.070;2023-07-31T05:47:23;10.98;;;8.95;;
63738;SDS011;68816;45.558;10.070;2023-07-31T05:49:49;10.77;;;9.50;;
63738;SDS011;68816;45.558;10.070;2023-07-31T05:52:17;14.43;;;9.50;;
63738;SDS011;68816;45.558;10.070;2023-07-31T05:54:43;11.50;;;9.50;;
63738;SDS011;68816;45.558;10.070;2023-07-31T05:57:11;12.93;;;9.65;;
63738;SDS011;68816;45.558;10.070;2023-07-31T05:59:36;14.70;;;9.95;;
63738;SDS011;68816;45.558;10.070;2023-07-31T06:02:02;11.85;;;9.68;;
63738;SDS011;68816;45.558;10.070;2023-07-31T06:04:27;11.27;;;9.43;;
63738;SDS011;68816;45.558;10.070;2023-07-31T06:06:53;13.68;;;9.77;;
63738;SDS011;68816;45.558;10.070;2023-07-31T06:09:19;10.65;;;9.23;;
63738;SDS011;68816;45.558;10.070;2023-07-31T06:11:45;13.80;;;9.82;;
63738;SDS011;68816;45.558;10.070;2023-07-31T06:14:11;12.45;;;9.75;;
63738;SDS011;68816;45.558;10.070;2023-07-31T06:16:36;11.95;;;9.90;;
63738;SDS011;68816;45.558;10.070;2023-07-31T06:19:02;11.32;;;10.23;;
63738;SDS011;68816;45.558;10.070;2023-07-31T06:21:28;11.73;;;10.18;;
63738;SDS011;68816;45.558;10.070;2023-07-31T06:23:54;10.00;;;9.05;;
63738;SDS011;68816;45.558;10.070;2023-07-31T06:26:20;8.93;;;7.97;;
63738;SDS011;68816;45.558;10.070;2023-07-31T06:28:46;9.40;;;8.40;;
63738;SDS011;68816;45.558;10.070;2023-07-31T06:31:11;11.52;;;9.75;;
63738;SDS011;68816;45.558;10.070;2023-07-31T06:33:37;10.77;;;8.35;;
63738;SDS011;68816;45.558;10.070;2023-07-31T06:36:03;10.63;;;8.35;;
63738;SDS011;68816;45.558;10.070;2023-07-31T06:38:28;8.05;;;7.35;;
63738;SDS011;68816;45.558;10.070;2023-07-31T06:40:54;9.00;;;7.53;;
63738;SDS011;68816;45.558;10.070;2023-07-31T06:43:19;8.57;;;7.68;;
63738;SDS011;68816;45.558;10.070;2023-07-31T06:45:45;8.88;;;7.47;;
63738;SDS011;68816;45.558;10.070;2023-07-31T06:48:11;7.40;;;6.70;;
63738;SDS011;68816;45.558;10.070;2023-07-31T06:50:37;8.77;;;6.55;;
63738;SDS011;68816;45.558;10.070;2023-07-31T06:53:02;6.85;;;6.15;;
63738;SDS011;68816;45.558;10.070;2023-07-31T06:55:28;7.53;;;6.72;;
63738;SDS011;68816;45.558;10.070;2023-07-31T06:57:54;10.07;;;6.63;;
63738;SDS011;68816;45.558;10.070;2023-07-31T07:00:21;7.68;;;6.47;;
63738;SDS011;68816;45.558;10.070;2023-07-31T07:02:48;7.63;;;6.07;;
63738;SDS011;68816;45.558;10.070;2023-07-31T07:05:14;9.13;;;6.30;;
63738;SDS011;68816;45.558;10.070;2023-07-31T07:07:41;6.88;;;6.28;;
63738;SDS011;68816;45.558;10.070;2023-07-31T07:10:07;7.32;;;6.63;;
63738;SDS011;68816;45.558;10.070;2023-07-31T07:12:33;7.30;;;6.60;;
63738;SDS011;68816;45.558;10.070;2023-07-31T07:14:59;7.97;;;6.93;;
63738;SDS011;68816;45.558;10.070;2023-07-31T07:17:26;10.05;;;7.20;;
63738;SDS011;68816;45.558;10.070;2023-07-31T07:19:53;9.63;;;8.73;;
63738;SDS011;68816;45.558;10.070;2023-07-31T07:22:20;10.10;;;8.85;;
63738;SDS011;68816;45.558;10.070;2023-07-31T07:24:45;11.77;;;7.85;;
63738;SDS011;68816;45.558;10.070;2023-07-31T07:27:11;9.70;;;8.18;;
63738;SDS011;68816;45.558;10.070;2023-07-31T07:29:37;8.80;;;7.28;;
63738;SDS011;68816;45.558;10.070;2023-07-31T07:32:03;8.55;;;7.60;;
63738;SDS011;68816;45.558;10.070;2023-07-31T07:34:29;10.40;;;7.43;;
63738;SDS011;68816;45.558;10.070;2023-07-31T07:36:55;7.28;;;6.57;;
63738;SDS011;68816;45.558;10.070;2023-07-31T07:39:21;6.97;;;6.35;;
63738;SDS011;68816;45.558;10.070;2023-07-31T07:41:46;7.43;;;5.97;;
63738;SDS011;68816;45.558;10.070;2023-07-31T07:44:13;5.80;;;5.30;;
63738;SDS011;68816;45.558;10.070;2023-07-31T07:46:39;6.95;;;5.70;;
63738;SDS011;68816;45.558;10.070;2023-07-31T07:49:05;6.07;;;5.50;;
63738;SDS011;68816;45.558;10.070;2023-07-31T07:51:30;7.05;;;5.78;;
63738;SDS011;68816;45.558;10.070;2023-07-31T07:53:59;8.43;;;6.00;;
63738;SDS011;68816;45.558;10.070;2023-07-31T07:56:25;9.27;;;6.57;;
63738;SDS011;68816;45.558;10.070;2023-07-31T07:58:52;8.48;;;6.38;;
63738;SDS011;68816;45.558;10.070;2023-07-31T08:01:18;10.55;;;6.60;;
63738;SDS011;68816;45.558;10.070;2023-07-31T08:03:43;7.53;;;6.10;;
63738;SDS011;68816;45.558;10.070;2023-07-31T08:06:09;8.40;;;6.35;;
63738;SDS011;68816;45.558;10.070;2023-07-31T08:08:35;6.57;;;5.75;;
63738;SDS011;68816;45.558;10.070;2023-07-31T08:11:01;8.63;;;6.88;;
63738;SDS011;68816;45.558;10.070;2023-07-31T08:13:27;8.30;;;6.57;;
63738;SDS011;68816;45.558;10.070;2023-07-31T08:15:53;7.45;;;6.70;;
63738;SDS011;68816;45.558;10.070;2023-07-31T08:18:18;12.27;;;6.82;;
63738;SDS011;68816;45.558;10.070;2023-07-31T08:20:44;8.60;;;7.63;;
63738;SDS011;68816;45.558;10.070;2023-07-31T08:23:10;7.00;;;6.28;;
63738;SDS011;68816;45.558;10.070;2023-07-31T08:25:36;11.75;;;6.70;;
63738;SDS011;68816;45.558;10.070;2023-07-31T08:28:05;9.23;;;6.50;;
63738;SDS011;68816;45.558;10.070;2023-07-31T08:30:31;7.28;;;6.07;;
63738;SDS011;68816;45.558;10.070;2023-07-31T08:32:58;7.18;;;6.20;;
63738;SDS011;68816;45.558;10.070;2023-07-31T08:35:24;8.52;;;5.95;;
63738;SDS011;68816;45.558;10.070;2023-07-31T08:37:50;8.07;;;5.40;;
63738;SDS011;68816;45.558;10.070;2023-07-31T08:40:16;6.75;;;4.90;;
63738;SDS011;68816;45.558;10.070;2023-07-31T08:42:47;6.18;;;4.25;;
63738;SDS011;68816;45.558;10.070;2023-07-31T08:45:15;5.07;;;4.47;;
63738;SDS011;68816;45.558;10.070;2023-07-31T08:47:44;5.18;;;3.72;;
63738;SDS011;68816;45.558;10.070;2023-07-31T08:50:12;5.70;;;4.70;;
63738;SDS011;68816;45.558;10.070;2023-07-31T08:52:38;4.15;;;3.67;;
63738;SDS011;68816;45.558;10.070;2023-07-31T08:55:05;3.05;;;2.72;;
63738;SDS011;68816;45.558;10.070;2023-07-31T08:57:31;3.47;;;3.20;;
63738;SDS011;68816;45.558;10.070;2023-07-31T08:59:59;3.25;;;2.85;;
63738;SDS011;68816;45.558;10.070;2023-07-31T09:02:25;3.33;;;3.03;;
63738;SDS011;68816;45.558;10.070;2023-07-31T09:04:59;3.40;;;2.97;;
63738;SDS011;68816;45.558;10.070;2023-07-31T09:07:26;3.47;;;2.80;;
63738;SDS011;68816;45.558;10.070;2023-07-31T09:09:52;3.45;;;2.97;;
63738;SDS011;68816;45.558;10.070;2023-07-31T09:12:18;3.78;;;3.20;;
63738;SDS011;68816;45.558;10.070;2023-07-31T09:14:44;3.53;;;3.10;;
63738;SDS011;68816;45.558;10.070;2023-07-31T09:17:11;4.18;;;2.53;;
63738;SDS011;68816;45.558;10.070;2023-07-31T09:19:36;2.85;;;2.50;;
63738;SDS011;68816;45.558;10.070;2023-07-31T09:22:03;2.78;;;2.58;;
63738;SDS011;68816;45.558;10.070;2023-07-31T09:24:32;3.47;;;2.63;;
63738;SDS011;68816;45.558;10.070;2023-07-31T09:27:00;2.90;;;2.13;;
63738;SDS011;68816;45.558;10.070;2023-07-31T09:29:29;2.38;;;2.17;;
63738;SDS011;68816;45.558;10.070;2023-07-31T09:31:55;3.38;;;2.40;;
63738;SDS011;68816;45.558;10.070;2023-07-31T09:34:28;2.97;;;2.60;;
63738;SDS011;68816;45.558;10.070;2023-07-31T09:36:57;2.80;;;2.60;;
63738;SDS011;68816;45.558;10.070;2023-07-31T09:39:26;3.25;;;2.58;;
63738;SDS011;68816;45.558;10.070;2023-07-31T09:41:55;3.88;;;2.92;;
63738;SDS011;68816;45.558;10.070;2023-07-31T09:44:21;3.40;;;2.70;;
63738;SDS011;68816;45.558;10.070;2023-07-31T09:47:05;2.33;;;2.13;;
63738;SDS011;68816;45.558;10.070;2023-07-31T09:49:30;2.22;;;1.83;;
63738;SDS011;68816;45.558;10.070;2023-07-31T09:51:56;2.72;;;2.22;;
63738;SDS011;68816;45.558;10.070;2023-07-31T09:54:21;4.40;;;2.50;;
63738;SDS011;68816;45.558;10.070;2023-07-31T09:56:47;3.72;;;2.50;;
63738;SDS011;68816;45.558;10.070;2023-07-31T09:59:15;2.53;;;2.30;;
63738;SDS011;68816;45.558;10.070;2023-07-31T10:01:42;2.55;;;2.35;;
63738;SDS011;68816;45.558;10.070;2023-07-31T10:04:10;2.67;;;2.20;;
63738;SDS011;68816;45.558;10.070;2023-07-31T10:06:36;3.28;;;2.40;;
63738;SDS011;68816;45.558;10.070;2023-07-31T10:09:07;2.88;;;2.08;;
63738;SDS011;68816;45.558;10.070;2023-07-31T10:11:46;3.10;;;2.30;;
63738;SDS011;68816;45.558;10.070;2023-07-31T10:14:18;3.25;;;2.35;;
63738;SDS011;68816;45.558;10.070;2023-07-31T10:16:45;3.22;;;2.50;;
63738;SDS011;68816;45.558;10.070;2023-07-31T10:19:12;2.50;;;2.30;;
63738;SDS011;68816;45.558;10.070;2023-07-31T10:21:37;2.33;;;2.13;;
63738;SDS011;68816;45.558;10.070;2023-07-31T10:24:04;2.47;;;2.28;;
63738;SDS011;68816;45.558;10.070;2023-07-31T10:26:31;3.05;;;2.08;;
63738;SDS011;68816;45.558;10.070;2023-07-31T10:28:58;3.28;;;2.20;;
63738;SDS011;68816;45.558;10.070;2023-07-31T10:31:25;2.83;;;2.00;;
63738;SDS011;68816;45.558;10.070;2023-07-31T10:33:53;2.97;;;2.00;;
63738;SDS011;68816;45.558;10.070;2023-07-31T10:36:19;2.53;;;2.03;;
63738;SDS011;68816;45.558;10.070;2023-07-31T10:38:48;3.15;;;1.90;;
63738;SDS011;68816;45.558;10.070;2023-07-31T10:41:15;2.55;;;2.30;;
63738;SDS011;68816;45.558;10.070;2023-07-31T10:43:41;3.78;;;2.78;;
63738;SDS011;68816;45.558;10.070;2023-07-31T10:46:09;3.15;;;2.85;;
63738;SDS011;68816;45.558;10.070;2023-07-31T10:48:37;2.90;;;2.55;;
63738;SDS011;68816;45.558;10.070;2023-07-31T10:51:10;5.63;;;2.83;;
63738;SDS011;68816;45.558;10.070;2023-07-31T10:53:37;3.83;;;2.15;;
63738;SDS011;68816;45.558;10.070;2023-07-31T10:56:04;4.22;;;2.20;;
63738;SDS011;68816;45.558;10.070;2023-07-31T10:58:34;2.58;;;2.33;;
63738;SDS011;68816;45.558;10.070;2023-07-31T11:01:05;2.83;;;2.15;;
63738;SDS011;68816;45.558;10.070;2023-07-31T11:03:45;3.00;;;2.60;;
63738;SDS011;68816;45.558;10.070;2023-07-31T11:06:14;3.67;;;2.67;;
63738;SDS011;68816;45.558;10.070;2023-07-31T11:08:47;3.97;;;2.72;;
63738;SDS011;68816;45.558;10.070;2023-07-31T11:11:15;5.00;;;3.22;;
63738;SDS011;68816;45.558;10.070;2023-07-31T11:13:43;3.20;;;2.95;;
63738;SDS011;68816;45.558;10.070;2023-07-31T11:16:20;3.50;;;3.20;;
63738;SDS011;68816;45.558;10.070;2023-07-31T11:18:47;3.47;;;2.97;;
63738;SDS011;68816;45.558;10.070;2023-07-31T11:23:41;5.10;;;3.05;;
63738;SDS011;68816;45.558;10.070;2023-07-31T11:26:10;3.30;;;3.00;;
63738;SDS011;68816;45.558;10.070;2023-07-31T11:28:36;5.65;;;3.20;;
63738;SDS011;68816;45.558;10.070;2023-07-31T11:31:03;3.72;;;3.35;;
63738;SDS011;68816;45.558;10.070;2023-07-31T11:33:29;4.57;;;3.60;;
63738;SDS011;68816;45.558;10.070;2023-07-31T11:35:55;4.13;;;3.80;;
63738;SDS011;68816;45.558;10.070;2023-07-31T11:38:23;5.07;;;3.90;;
63738;SDS011;68816;45.558;10.070;2023-07-31T11:40:57;4.30;;;3.90;;
63738;SDS011;68816;45.558;10.070;2023-07-31T11:43:25;4.07;;;3.60;;
63738;SDS011;68816;45.558;10.070;2023-07-31T11:45:52;5.50;;;3.83;;
63738;SDS011;68816;45.558;10.070;2023-07-31T11:48:23;5.47;;;5.00;;
63738;SDS011;68816;45.558;10.070;2023-07-31T11:50:52;5.40;;;4.78;;
63738;SDS011;68816;45.558;10.070;2023-07-31T11:53:41;6.40;;;5.80;;
63738;SDS011;68816;45.558;10.070;2023-07-31T11:56:10;5.93;;;5.10;;
63738;SDS011;68816;45.558;10.070;2023-07-31T11:58:42;4.35;;;3.95;;
63738;SDS011;68816;45.558;10.070;2023-07-31T12:01:10;5.63;;;4.05;;
63738;SDS011;68816;45.558;10.070;2023-07-31T12:03:36;5.40;;;4.40;;
63738;SDS011;68816;45.558;10.070;2023-07-31T12:06:03;5.15;;;4.75;;
63738;SDS011;68816;45.558;10.070;2023-07-31T12:08:29;4.68;;;4.28;;
63738;SDS011;68816;45.558;10.070;2023-07-31T12:10:54;6.38;;;4.78;;
63738;SDS011;68816;45.558;10.070;2023-07-31T12:13:30;4.82;;;4.40;;
63738;SDS011;68816;45.558;10.070;2023-07-31T12:15:58;7.05;;;4.78;;
63738;SDS011;68816;45.558;10.070;2023-07-31T12:18:26;5.82;;;5.22;;
63738;SDS011;68816;45.558;10.070;2023-07-31T12:20:54;5.13;;;4.63;;
63738;SDS011;68816;45.558;10.070;2023-07-31T12:23:21;6.15;;;4.63;;
63738;SDS011;68816;45.558;10.070;2023-07-31T12:28:37;7.88;;;5.03;;
63738;SDS011;68816;45.558;10.070;2023-07-31T12:31:03;5.72;;;5.03;;
63738;SDS011;68816;45.558;10.070;2023-07-31T12:33:31;4.72;;;4.25;;
63738;SDS011;68816;45.558;10.070;2023-07-31T12:35:58;4.57;;;4.13;;
63738;SDS011;68816;45.558;10.070;2023-07-31T12:38:25;5.88;;;4.50;;
63738;SDS011;68816;45.558;10.070;2023-07-31T12:40:51;4.65;;;3.90;;
63738;SDS011;68816;45.558;10.070;2023-07-31T12:43:17;5.00;;;4.50;;
63738;SDS011;68816;45.558;10.070;2023-07-31T12:45:42;5.93;;;4.30;;
63738;SDS011;68816;45.558;10.070;2023-07-31T12:48:08;5.20;;;3.80;;
63738;SDS011;68816;45.558;10.070;2023-07-31T12:50:34;4.95;;;4.18;;
63738;SDS011;68816;45.558;10.070;2023-07-31T12:53:01;5.10;;;3.88;;
63738;SDS011;68816;45.558;10.070;2023-07-31T12:55:28;4.85;;;3.42;;
63738;SDS011;68816;45.558;10.070;2023-07-31T12:57:55;5.65;;;3.78;;
63738;SDS011;68816;45.558;10.070;2023-07-31T13:00:21;4.75;;;4.25;;
63738;SDS011;68816;45.558;10.070;2023-07-31T13:02:47;4.35;;;3.67;;
63738;SDS011;68816;45.558;10.070;2023-07-31T13:05:12;4.35;;;3.95;;
63738;SDS011;68816;45.558;10.070;2023-07-31T13:07:38;4.15;;;3.80;;
63738;SDS011;68816;45.558;10.070;2023-07-31T13:10:05;4.15;;;3.85;;
63738;SDS011;68816;45.558;10.070;2023-07-31T13:12:32;4.38;;;3.30;;
63738;SDS011;68816;45.558;10.070;2023-07-31T13:14:57;5.03;;;4.10;;
63738;SDS011;68816;45.558;10.070;2023-07-31T13:17:23;4.75;;;3.30;;
63738;SDS011;68816;45.558;10.070;2023-07-31T13:19:48;4.10;;;3.70;;
63738;SDS011;68816;45.558;10.070;2023-07-31T13:22:14;3.78;;;3.45;;
63738;SDS011;68816;45.558;10.070;2023-07-31T13:24:40;4.35;;;3.95;;
63738;SDS011;68816;45.558;10.070;2023-07-31T13:27:05;3.92;;;3.53;;
63738;SDS011;68816;45.558;10.070;2023-07-31T13:29:31;3.22;;;2.92;;
63738;SDS011;68816;45.558;10.070;2023-07-31T13:31:57;3.25;;;2.95;;
63738;SDS011;68816;45.558;10.070;2023-07-31T13:34:23;3.50;;;3.20;;
63738;SDS011;68816;45.558;10.070;2023-07-31T13:36:48;4.13;;;3.45;;
63738;SDS011;68816;45.558;10.070;2023-07-31T13:39:14;3.70;;;3.00;;
63738;SDS011;68816;45.558;10.070;2023-07-31T13:41:40;3.70;;;3.40;;
63738;SDS011;68816;45.558;10.070;2023-07-31T13:44:05;5.70;;;3.20;;
63738;SDS011;68816;45.558;10.070;2023-07-31T13:46:31;3.55;;;3.25;;
63738;SDS011;68816;45.558;10.070;2023-07-31T13:48:58;4.47;;;3.20;;
63738;SDS011;68816;45.558;10.070;2023-07-31T13:51:25;4.10;;;3.50;;
63738;SDS011;68816;45.558;10.070;2023-07-31T13:53:51;3.78;;;3.40;;
63738;SDS011;68816;45.558;10.070;2023-07-31T13:56:16;3.55;;;3.25;;
63738;SDS011;68816;45.558;10.070;2023-07-31T13:58:42;4.05;;;3.60;;
63738;SDS011;68816;45.558;10.070;2023-07-31T14:01:07;4.25;;;3.53;;
63738;SDS011;68816;45.558;10.070;2023-07-31T14:03:34;3.90;;;3.60;;
63738;SDS011;68816;45.558;10.070;2023-07-31T14:05:59;4.57;;;3.55;;
63738;SDS011;68816;45.558;10.070;2023-07-31T14:08:25;4.05;;;3.63;;
63738;SDS011;68816;45.558;10.070;2023-07-31T14:10:50;4.20;;;3.42;;
63738;SDS011;68816;45.558;10.070;2023-07-31T14:13:16;3.80;;;3.20;;
63738;SDS011;68816;45.558;10.070;2023-07-31T14:15:42;3.65;;;3.33;;
63738;SDS011;68816;45.558;10.070;2023-07-31T14:18:11;3.42;;;3.13;;
63738;SDS011;68816;45.558;10.070;2023-07-31T14:20:36;3.80;;;3.40;;
63738;SDS011;68816;45.558;10.070;2023-07-31T14:23:02;5.97;;;3.85;;
63738;SDS011;68816;45.558;10.070;2023-07-31T14:25:28;4.78;;;3.40;;
63738;SDS011;68816;45.558;10.070;2023-07-31T14:27:54;5.10;;;3.80;;
63738;SDS011;68816;45.558;10.070;2023-07-31T14:30:19;3.80;;;3.50;;
63738;SDS011;68816;45.558;10.070;2023-07-31T14:32:45;6.38;;;4.07;;
63738;SDS011;68816;45.558;10.070;2023-07-31T14:35:11;4.57;;;3.55;;